createdAt,value
2022-08-09T00:01:14.467Z,16
2022-08-09T00:11:24.525Z,16
2022-08-09T00:21:13.503Z,16
2022-08-09T00:31:57.425Z,15.9
2022-08-09T00:44:16.062Z,15.7
2022-08-09T00:51:13.546Z,15.6
2022-08-09T04:31:13.758Z,13.8
2022-08-09T04:41:13.964Z,14.5
2022-08-09T05:01:16.047Z,15.1
2022-08-09T05:11:14.005Z,15.6
2022-08-09T05:21:23.147Z,15.4
2022-08-09T05:31:14.037Z,15.6
2022-08-09T05:41:14.046Z,15.8
2022-08-09T05:51:30.318Z,16.2
2022-08-09T06:01:15.971Z,16.7
2022-08-09T06:11:16.629Z,16.7
2022-08-09T06:21:16.174Z,17.7
2022-08-09T06:31:14.126Z,18.4
2022-08-09T06:41:18.309Z,18.8
2022-08-09T06:51:14.826Z,19.7
2022-08-09T07:01:14.341Z,19.8
2022-08-09T07:11:17.714Z,19.4
2022-08-09T07:21:14.205Z,20
2022-08-09T07:31:14.234Z,21
2022-08-09T07:41:14.362Z,20.9
2022-08-09T07:52:04.614Z,21.8
2022-08-09T08:01:14.318Z,21.6
2022-08-09T08:12:11.987Z,21.9
2022-08-09T08:31:15.181Z,23.7
2022-08-09T08:41:14.302Z,24.1
2022-08-09T08:51:14.333Z,24.9
2022-08-09T09:01:20.970Z,25.1
2022-08-09T09:11:19.490Z,25
2022-08-09T09:31:17.565Z,28.3
2022-08-09T09:41:14.396Z,27.4
2022-08-09T09:51:14.434Z,27.8
2022-08-09T10:01:30.958Z,27.9
2022-08-09T10:11:52.744Z,28.2
2022-08-09T10:21:14.509Z,28.3
2022-08-09T10:41:14.295Z,27.6
2022-08-09T10:51:14.525Z,29.5
2022-08-09T11:11:14.549Z,32.8
2022-08-09T11:21:14.358Z,33.2
2022-08-09T11:31:15.315Z,32.3
2022-08-09T11:41:16.039Z,33.5
2022-08-09T11:52:54.109Z,31.7
2022-08-09T12:01:37.219Z,32.5
2022-08-09T12:11:15.452Z,31.3
2022-08-09T12:21:28.366Z,34.4
2022-08-09T12:41:14.671Z,36.9
2022-08-09T12:51:14.682Z,35.5
2022-08-09T13:01:14.748Z,34.4
2022-08-09T13:11:24.388Z,33.8
2022-08-09T13:22:35.899Z,34.5
2022-08-09T13:32:17.133Z,34.6
2022-08-09T13:51:14.764Z,33
2022-08-09T14:02:00.467Z,33.7
2022-08-09T14:11:16.087Z,33.2
2022-08-09T14:21:14.822Z,33.7
2022-08-09T14:31:14.842Z,32
2022-08-09T14:41:39.831Z,32.8
2022-08-09T14:51:14.849Z,33.6
2022-08-09T15:01:14.913Z,32.6
2022-08-09T15:21:55.588Z,30.7
2022-08-09T15:31:18.723Z,29.8
2022-08-09T15:41:22.141Z,29.2
2022-08-09T15:51:30.313Z,28.3
2022-08-09T16:01:15.054Z,28.4
2022-08-09T16:11:14.977Z,28.7
2022-08-09T16:21:16.898Z,27.9
2022-08-09T16:31:15.989Z,27.6
2022-08-09T16:41:17.263Z,27.5
2022-08-09T16:51:15.076Z,27.2
2022-08-09T17:01:15.082Z,27
2022-08-09T17:11:15.236Z,26.6
2022-08-09T17:21:15.368Z,26.3
2022-08-09T17:31:16.113Z,26.3
2022-08-09T17:41:15.103Z,25.8
2022-08-09T17:51:18.399Z,25.5
2022-08-09T18:01:15.687Z,25.3
2022-08-09T18:11:16.376Z,24.9
2022-08-09T18:21:22.688Z,24.6
2022-08-09T18:31:15.181Z,24.4
2022-08-09T18:41:16.443Z,24.1
2022-08-09T18:51:15.216Z,23.8
2022-08-09T19:01:15.215Z,23.4
2022-08-09T19:11:15.242Z,23.3
2022-08-09T19:21:15.254Z,23
2022-08-09T19:31:15.282Z,22.7
2022-08-09T19:41:32.911Z,22.8
2022-08-09T20:01:15.380Z,22.1
2022-08-09T20:31:15.407Z,21.3
2022-08-09T20:41:15.442Z,21.2
2022-08-09T20:51:19.195Z,20.8
2022-08-09T21:01:34.767Z,20.4
2022-08-09T21:21:17.393Z,20.1
2022-08-09T21:31:17.195Z,20.1
2022-08-09T21:41:17.034Z,20.1
2022-08-09T21:51:24.007Z,20.1
2022-08-09T22:31:15.549Z,19.4
2022-08-09T22:41:15.554Z,19.3
2022-08-09T23:01:15.606Z,18.9
2022-08-09T23:11:15.591Z,18.6
2022-08-09T23:31:15.668Z,18.1
2022-08-09T23:41:28.938Z,17.8
2022-08-09T23:51:15.664Z,17.3
